Latest Weather Observations for Ballina

IDN60801

Issued at 9:35 pm EST Tuesday 30 September 2014 (issued every 30 minutes, with the page automatically refreshed every 10 minutes)

About weather observations | Map of weather stations | Latest weather observations for NSW | Other Formats
Station Details ID: 058198 Name: BALLINA AIRPORT AWS Lat: -28.84 Lon: 153.56 Height: 1.3 m
Data from the previous 72 hours. | See also: Recent months at Ballina
Date/Time
EST
Temp
°C
App
Temp
°C
Dew
Point
Rel
Hum
%
Delta-T
°C
Wind Press
QNH
hPa
Press
MSL
hPa
Rain
since 9 am
mm
Dir
 
Spd
km/h
Gust
km/h
Spd
kts
Gust
kts
30/09:30pm 19.8 17.2 15.9 78 2.3 N 24 35 13 19 1016.4 1016.4 0.0
30/09:00pm 19.9 17.0 16.2 79 2.2 N 26 37 14 20 1016.7 1016.7 0.0
30/08:30pm 19.9 17.5 16.3 80 2.2 N 24 33 13 18 1016.7 1016.7 0.0
30/08:00pm 19.9 18.2 16.3 80 2.2 N 20 28 11 15 1016.7 1016.7 0.0
30/07:30pm 20.1 17.6 16.1 78 2.4 N 24 33 13 18 1016.6 1016.6 0.0
30/07:00pm 20.0 17.9 16.2 79 2.3 N 22 32 12 17 1016.5 1016.5 0.0
30/06:30pm 20.1 18.3 16.1 78 2.4 N 20 32 11 17 1016.2 1016.2 0.0
30/06:00pm 20.3 17.7 15.9 76 2.6 NNE 24 35 13 19 1015.8 1015.8 0.0
30/05:30pm 20.8 18.2 15.8 73 3.0 N 24 35 13 19 1015.7 1015.7 0.0
30/05:00pm 21.6 18.1 15.4 68 3.7 N 28 37 15 20 1015.7 1015.7 0.0
30/04:30pm 22.3 18.7 15.2 64 4.2 N 28 35 15 19 1015.8 1015.8 0.0
30/04:00pm 22.9 18.3 15.0 61 4.7 N 33 46 18 25 1015.8 1015.8 0.0
30/03:30pm 23.7 20.0 14.9 57 5.2 N 28 44 15 24 1015.7 1015.7 0.0
30/03:00pm 24.1 19.6 14.8 56 5.5 N 32 43 17 23 1015.9 1015.9 0.0
30/02:30pm 24.7 21.1 14.2 52 6.2 NNE 26 39 14 21 1016.0 1016.0 0.0
30/02:00pm 26.1 23.7 15.5 52 6.4 NNE 22 33 12 18 1016.1 1016.1 0.0
30/01:30pm 25.7 23.0 14.5 50 6.7 N 22 30 12 16 1016.3 1016.3 0.0
30/01:00pm 25.8 22.5 14.9 51 6.5 NE 26 33 14 18 1016.8 1016.8 0.0
30/12:30pm 25.7 22.2 15.4 53 6.2 NE 28 33 15 18 1017.2 1017.2 0.0
30/12:00pm 25.6 22.1 15.6 54 6.1 NE 28 35 15 19 1017.5 1017.5 0.0
30/11:30am 25.8 23.0 16.4 56 5.8 NE 26 32 14 17 1017.8 1017.8 0.0
30/11:00am 26.0 23.4 16.0 54 6.1 NE 24 30 13 16 1018.2 1018.2 0.0
30/10:30am 25.6 23.6 15.6 54 6.1 NE 20 28 11 15 1018.6 1018.6 0.0
30/10:00am 25.4 24.7 14.2 50 6.6 N 11 20 6 11 1019.0 1019.0 0.0
30/09:30am 24.8 24.6 14.6 53 6.1 N 9 15 5 8 1019.4 1019.4 0.0
30/09:00am 23.4 22.7 13.3 53 5.8 N 9 13 5 7 1019.6 1019.6 0.0
30/08:30am 22.2 21.1 13.0 56 5.3 N 11 15 6 8 1019.5 1019.5 0.0
30/08:00am 21.2 20.4 14.1 64 4.1 N 11 17 6 9 1019.4 1019.4 0.0
30/07:30am 19.3 18.7 13.5 69 3.3 N 9 13 5 7 1019.3 1019.3 0.0
30/07:00am 15.9 17.5 14.8 93 0.6 CALM 0 0 0 0 1019.4 1019.4 0.0
30/06:30am 13.9 15.0 13.4 97 0.3 CALM 0 0 0 0 1019.2 1019.2 0.0
30/06:00am 11.9 12.3 11.4 97 0.3 CALM 0 0 0 0 1019.0 1019.0 0.0
30/05:42am 11.8 12.2 11.2 96 0.3 CALM 0 0 0 0 1018.7 1018.7 0.0
30/05:30am 11.7 12.1 11.1 96 0.3 CALM 0 0 0 0 1018.7 1018.7 0.0
30/05:03am 11.1 11.3 10.5 96 0.3 CALM 0 0 0 0 1018.4 1018.4 0.0
30/05:00am 11.8 12.2 11.2 96 0.3 CALM 0 0 0 0 1018.4 1018.4 0.0
30/04:59am 11.8 12.2 11.2 96 0.3 CALM 0 0 0 0 1018.4 1018.4 0.0
30/04:36am 12.6 13.2 12.0 96 0.3 CALM 0 0 0 0 1018.2 1018.2 0.0
30/04:30am 12.2 12.7 11.6 96 0.3 CALM 0 0 0 0 1018.1 1018.1 0.0
30/04:00am 12.3 12.7 11.4 94 0.5 CALM 0 0 0 0 1018.0 1018.0 0.0
30/03:30am 12.7 13.3 11.8 94 0.5 CALM 0 0 0 0 1017.7 1017.7 0.0
30/03:00am 12.9 13.4 11.6 92 0.7 CALM 0 0 0 0 1017.6 1017.6 0.0
30/02:30am 13.1 13.6 11.7 91 0.7 CALM 0 0 0 0 1017.8 1017.8 0.0
30/02:00am 14.1 14.8 12.3 89 1.0 CALM 0 0 0 0 1017.9 1017.9 0.0
30/01:30am 14.6 14.0 11.7 83 1.6 N 6 6 3 3 1017.9 1017.9 0.0
30/01:00am 16.4 16.2 13.1 81 1.8 NNW 6 7 3 4 1018.2 1018.2 0.0
30/12:30am 16.7 15.9 13.0 79 2.1 N 9 13 5 7 1018.3 1018.3 0.0
30/12:00am 17.1 15.6 13.0 77 2.3 N 13 17 7 9 1018.4 1018.4 0.0
 
Date/Time
EST
Temp
°C
App
Temp
°C
Dew
Point
Rel
Hum
%
Delta-T
°C
Wind Press
QNH
hPa
Press
MSL
hPa
Rain
since 9 am
mm
Dir
 
Spd
km/h
Gust
km/h
Spd
kts
Gust
kts
29/11:30pm 17.3 15.8 13.0 76 2.4 N 13 19 7 10 1018.5 1018.5 0.0
29/11:00pm 17.8 15.9 13.1 74 2.6 N 15 19 8 10 1018.5 1018.5 0.0
29/10:30pm 18.1 15.5 13.2 73 2.8 N 19 24 10 13 1018.5 1018.5 0.0
29/10:00pm 18.2 16.1 13.7 75 2.6 N 17 22 9 12 1018.6 1018.6 0.0
29/09:30pm 18.6 16.4 14.5 77 2.4 N 19 28 10 15 1018.6 1018.6 0.0
29/09:00pm 18.8 16.8 14.9 78 2.3 N 19 28 10 15 1018.6 1018.6 0.0
29/08:30pm 18.9 16.9 15.0 78 2.3 N 19 24 10 13 1018.5 1018.5 0.0
29/08:00pm 19.0 17.4 14.9 77 2.4 N 17 24 9 13 1018.4 1018.4 0.0
29/07:30pm 19.2 17.1 14.7 75 2.6 N 19 26 10 14 1018.1 1018.1 0.0
29/07:00pm 19.4 17.8 15.1 76 2.5 N 17 24 9 13 1017.8 1017.8 0.0
29/06:30pm 19.6 17.6 15.0 75 2.7 N 19 24 10 13 1017.5 1017.5 0.0
29/06:00pm 19.7 18.1 14.9 74 2.8 N 17 26 9 14 1017.2 1017.2 0.0
29/05:30pm 20.6 18.7 15.2 71 3.2 N 19 30 10 16 1016.9 1016.9 0.0
29/05:00pm 21.5 19.0 15.1 67 3.8 N 22 30 12 16 1016.6 1016.6 0.0
29/04:30pm 22.4 20.2 15.0 63 4.4 N 20 26 11 14 1016.7 1016.7 0.0
29/04:00pm 23.1 20.4 14.7 59 5.0 N 22 28 12 15 1016.6 1016.6 0.0
29/03:30pm 23.7 20.9 14.4 56 5.5 NNE 22 30 12 16 1016.5 1016.5 0.0
29/03:00pm 24.6 22.7 15.2 55 5.6 N 19 30 10 16 1016.4 1016.4 0.0
29/02:30pm 24.0 20.5 15.5 59 5.1 NE 28 35 15 19 1016.5 1016.5 0.0
29/02:00pm 24.7 22.3 15.3 56 5.6 NE 22 30 12 16 1016.8 1016.8 0.0
29/01:30pm 24.7 21.9 15.3 56 5.7 NE 24 30 13 16 1017.2 1017.2 0.0
29/01:00pm 25.1 22.4 15.7 56 5.7 NE 24 33 13 18 1017.5 1017.5 0.0
29/12:30pm 25.0 23.1 15.3 55 5.8 NE 19 28 10 15 1017.9 1017.9 0.0
29/12:00pm 24.5 21.2 14.9 55 5.7 NE 26 33 14 18 1018.2 1018.2 0.0
29/11:30am 24.5 22.2 14.0 52 6.2 NNE 19 28 10 15 1018.6 1018.6 0.0
29/11:00am 24.0 21.8 14.4 55 5.7 N 19 28 10 15 1019.1 1019.1 0.0
29/10:30am 23.2 20.4 13.1 53 5.8 N 20 28 11 15 1019.6 1019.6 0.0
29/10:00am 23.3 20.7 13.8 55 5.5 NNE 20 28 11 15 1019.9 1019.9 0.0
29/09:30am 22.7 20.1 13.7 56 5.2 N 20 30 11 16 1020.1 1020.1 0.0
29/09:00am 21.4 18.8 13.3 60 4.6 N 19 24 10 13 1020.6 1020.6 0.0
29/08:30am 20.5 20.6 14.4 68 3.6 NNW 7 19 4 10 1021.2 1021.2 0.0
29/08:00am 18.5 19.2 13.4 72 2.9 WSW 2 9 1 5 1021.3 1021.3 0.0
29/07:30am 16.5 17.6 13.4 82 1.7 CALM 0 0 0 0 1021.3 1021.3 0.0
29/07:00am 14.3 15.4 13.5 95 0.4 CALM 0 0 0 0 1021.2 1021.2 0.0
29/06:30am 12.5 13.2 12.2 98 0.2 CALM 0 0 0 0 1021.0 1021.0 0.0
29/06:00am 10.4 10.5 10.1 98 0.2 CALM 0 0 0 0 1020.9 1020.9 0.0
29/05:35am 9.9 9.8 9.4 97 0.2 CALM 0 0 0 0 1020.7 1020.7 0.0
29/05:30am 9.9 9.8 9.4 97 0.2 CALM 0 0 0 0 1020.6 1020.6 0.0
29/05:18am 10.4 10.5 10.1 98 0.2 CALM 0 0 0 0 1020.5 1020.5 0.0
29/05:04am 10.2 10.2 9.7 97 0.3 CALM 0 0 0 0 1020.4 1020.4 0.0
29/05:00am 10.1 10.0 9.6 97 0.2 CALM 0 0 0 0 1020.3 1020.3 0.0
29/04:30am 10.1 10.0 9.6 97 0.2 CALM 0 0 0 0 1019.9 1019.9 0.0
29/04:12am 10.1 10.0 9.6 97 0.2 CALM 0 0 0 0 1019.7 1019.7 0.0
29/04:00am 10.1 10.0 9.5 96 0.3 CALM 0 0 0 0 1019.6 1019.6 0.0
29/03:30am 10.1 10.0 9.5 96 0.3 CALM 0 0 0 0 1019.5 1019.5 0.0
29/03:00am 10.6 10.7 10.0 96 0.3 CALM 0 0 0 0 1019.5 1019.5 0.0
29/02:30am 10.5 10.5 9.7 95 0.4 CALM 0 0 0 0 1019.6 1019.6 0.0
29/02:00am 10.7 10.7 9.8 94 0.5 CALM 0 0 0 0 1019.9 1019.9 0.0
29/01:30am 10.7 10.7 9.8 94 0.5 CALM 0 0 0 0 1020.3 1020.3 0.0
29/01:00am 11.2 11.4 10.4 95 0.4 CALM 0 0 0 0 1020.7 1020.7 0.0
29/12:30am 11.5 11.7 10.6 94 0.5 CALM 0 0 0 0 1021.0 1021.0 0.0
29/12:00am 11.7 12.0 10.8 94 0.5 CALM 0 0 0 0 1021.4 1021.4 0.0
 
Date/Time
EST
Temp
°C
App
Temp
°C
Dew
Point
Rel
Hum
%
Delta-T
°C
Wind Press
QNH
hPa
Press
MSL
hPa
Rain
since 9 am
mm
Dir
 
Spd
km/h
Gust
km/h
Spd
kts
Gust
kts
28/11:30pm 12.0 12.4 11.1 94 0.5 CALM 0 0 0 0 1021.6 1021.6 0.0
28/11:00pm 12.6 13.1 11.7 94 0.5 CALM 0 0 0 0 1021.6 1021.6 0.0
28/10:30pm 12.6 13.0 11.2 91 0.7 CALM 0 0 0 0 1021.6 1021.6 0.0
28/10:00pm 13.1 13.6 11.5 90 0.8 CALM 0 6 0 3 1021.6 1021.6 0.0
28/09:30pm 13.7 14.4 12.3 91 0.8 CALM 0 0 0 0 1021.5 1021.5 0.0
28/09:00pm 14.1 14.9 12.7 91 0.8 CALM 0 0 0 0 1021.7 1021.7 0.0
28/08:30pm 14.1 14.8 12.1 88 1.1 CALM 0 0 0 0 1021.6 1021.6 0.0
28/08:00pm 14.5 14.6 11.6 83 1.5 NE 2 6 1 3 1021.4 1021.4 0.0
28/07:30pm 15.8 15.6 13.1 84 1.5 NE 6 6 3 3 1021.2 1021.2 0.0
28/07:00pm 16.0 15.3 12.0 77 2.2 ENE 7 9 4 5 1020.7 1020.7 0.0
28/06:30pm 16.4 15.6 11.8 74 2.5 ENE 7 9 4 5 1020.6 1020.6 0.0
28/06:00pm 17.4 16.4 11.0 66 3.4 E 7 11 4 6 1020.4 1020.4 0.0
28/05:30pm 18.5 16.8 11.1 62 4.0 ESE 11 15 6 8 1020.2 1020.2 0.0
28/05:00pm 19.7 17.2 11.2 58 4.6 SE 15 20 8 11 1020.1 1020.1 0.0
28/04:30pm 20.3 17.4 11.0 55 5.1 SE 17 28 9 15 1020.1 1020.1 0.0
28/04:00pm 20.9 18.1 11.3 54 5.3 SSE 17 24 9 13 1020.0 1020.0 0.0
28/03:30pm 20.9 17.8 11.5 55 5.2 SSE 19 26 10 14 1020.0 1020.0 0.0
28/03:00pm 21.6 18.4 13.2 59 4.8 S 22 30 12 16 1020.1 1020.1 0.0
28/02:30pm 21.0 17.7 12.9 60 4.6 SSE 22 32 12 17 1020.3 1020.3 0.0
28/02:00pm 21.1 17.7 12.5 58 4.8 SSE 22 30 12 16 1020.5 1020.5 0.0
28/01:30pm 21.1 17.9 12.0 56 5.1 SSE 20 28 11 15 1020.7 1020.7 0.0
28/01:00pm 21.7 18.0 12.8 57 5.1 SSE 24 32 13 17 1021.0 1021.0 0.0
28/12:30pm 21.8 18.4 12.4 55 5.3 SSE 22 28 12 15 1021.2 1021.2 0.0
28/12:00pm 21.9 19.0 13.0 57 5.1 SSE 20 30 11 16 1021.6 1021.6 0.0
28/11:30am 21.3 18.3 12.7 58 4.9 S 20 28 11 15 1021.8 1021.8 0.0
28/11:00am 20.8 17.6 11.4 55 5.2 S 19 28 10 15 1022.1 1022.1 0.0
28/10:30am 20.8 17.5 10.9 53 5.4 S 19 28 10 15 1022.4 1022.4 0.0
28/10:00am 20.6 17.3 11.5 56 5.0 S 20 28 11 15 1022.7 1022.7 0.0
28/09:30am 20.6 17.5 12.3 59 4.7 S 20 28 11 15 1022.7 1022.7 0.0
28/09:00am 20.2 17.3 12.9 63 4.1 SSW 20 28 11 15 1022.7 1022.7 2.8
28/08:30am 19.7 17.8 14.1 70 3.2 SSW 17 24 9 13 1022.6 1022.6 2.8
28/08:00am 18.7 17.1 14.0 74 2.7 SSW 15 22 8 12 1022.5 1022.5 2.8
28/07:30am 17.6 15.8 13.3 76 2.4 WSW 15 22 8 12 1022.2 1022.2 2.8
28/07:00am 16.3 15.7 13.4 83 1.6 W 9 13 5 7 1022.2 1022.2 2.8
28/06:30am 14.4 14.0 13.1 92 0.7 W 7 9 4 5 1022.0 1022.0 2.8
28/06:00am 13.3 12.8 12.2 93 0.6 W 6 9 3 5 1021.6 1021.6 2.8
28/05:30am 13.5 12.5 12.2 92 0.7 W 9 11 5 6 1021.6 1021.6 2.8
28/05:00am 14.1 13.7 13.0 93 0.6 W 7 9 4 5 1021.7 1021.7 2.8
28/04:30am 14.8 14.5 13.2 90 0.9 WNW 7 9 4 5 1021.2 1021.2 2.8
28/04:00am 15.4 15.0 13.1 86 1.3 WSW 7 11 4 6 1021.0 1021.0 2.8
28/03:30am 15.2 14.4 12.9 86 1.3 W 9 13 5 7 1020.8 1020.8 2.8
28/03:00am 15.7 14.6 13.2 85 1.4 SE 11 17 6 9 1021.1 1021.1 2.8
28/02:30am 14.8 14.5 13.3 91 0.8 SW 7 13 4 7 1020.9 1020.9 2.8
28/02:00am 14.4 13.4 13.3 93 0.6 W 11 13 6 7 1021.0 1021.0 2.8
28/01:30am 14.0 12.3 12.6 91 0.8 W 13 15 7 8 1021.0 1021.0 2.6
28/01:00am 14.9 13.5 13.3 90 0.9 W 13 15 7 8 1021.3 1021.3 2.6
28/12:30am 16.2 15.6 13.5 84 1.5 SW 9 17 5 9 1021.3 1021.3 2.6
28/12:00am 16.1 14.3 13.4 84 1.5 W 15 19 8 10 1021.7 1021.7 2.2
 
Date/Time
EST
Temp
°C
App
Temp
°C
Dew
Point
Rel
Hum
%
Delta-T
°C
Wind Press
QNH
hPa
Press
MSL
hPa
Rain
since 9 am
mm
Dir
 
Spd
km/h
Gust
km/h
Spd
kts
Gust
kts
27/11:30pm 17.9 16.5 12.1 69 3.2 S 11 15 6 8 1021.6 1021.6 2.2
27/11:00pm 18.4 16.6 12.2 67 3.4 S 13 19 7 10 1021.6 1021.6 2.2
27/10:30pm 17.9 16.2 12.4 70 3.0 S 13 17 7 9 1021.4 1021.4 2.2
27/10:00pm 18.5 16.1 12.7 69 3.2 S 17 22 9 12 1021.4 1021.4 2.2

Other Formats:

Comma delimited format used in spreadsheet applications
http://www.bom.gov.au/fwo/IDN60801/IDN60801.94596.axf

JavaScript Object Notation format (JSON) in row-major order
http://www.bom.gov.au/fwo/IDN60801/IDN60801.94596.json